createdAt,value
2019-05-12T00:00:40.009Z,0.00
2019-05-12T00:03:39.972Z,0.00
2019-05-12T00:06:39.931Z,0.00
2019-05-12T00:09:39.913Z,0.00
2019-05-12T00:12:39.866Z,0.00
2019-05-12T00:15:39.853Z,0.00
2019-05-12T00:18:39.826Z,0.00
2019-05-12T00:21:40.020Z,0.00
2019-05-12T00:24:39.764Z,0.00
2019-05-12T00:27:39.723Z,0.00
2019-05-12T00:30:39.711Z,0.00
2019-05-12T00:33:39.642Z,0.00
2019-05-12T00:36:39.634Z,0.00
2019-05-12T00:39:39.586Z,0.00
2019-05-12T00:42:39.576Z,0.00
2019-05-12T00:45:39.535Z,0.00
2019-05-12T00:48:39.488Z,0.00
2019-05-12T00:51:39.467Z,0.00
2019-05-12T00:54:39.449Z,0.00
2019-05-12T00:57:39.394Z,0.00
2019-05-12T01:00:41.365Z,0.00
2019-05-12T01:03:39.330Z,0.00
2019-05-12T01:06:39.307Z,0.00
2019-05-12T01:09:39.279Z,0.00
2019-05-12T01:12:39.239Z,0.00
2019-05-12T01:15:39.194Z,0.00
2019-05-12T01:18:39.173Z,0.00
2019-05-12T01:21:39.136Z,0.00
2019-05-12T01:24:39.113Z,0.00
2019-05-12T01:27:39.065Z,0.00
2019-05-12T01:30:39.548Z,0.00
2019-05-12T01:33:39.017Z,0.00
2019-05-12T01:36:38.969Z,0.00
2019-05-12T01:39:38.962Z,0.00
2019-05-12T01:42:38.913Z,0.00
2019-05-12T01:45:38.892Z,0.00
2019-05-12T01:48:38.868Z,0.00
2019-05-12T01:51:38.808Z,0.00
2019-05-12T01:54:38.798Z,0.00
2019-05-12T01:57:38.877Z,0.00
2019-05-12T02:00:39.384Z,0.00
2019-05-12T02:03:38.693Z,0.00
2019-05-12T02:06:38.921Z,0.00
2019-05-12T02:09:38.821Z,0.00
2019-05-12T02:12:38.630Z,0.00
2019-05-12T02:15:38.608Z,0.00
2019-05-12T02:18:38.518Z,0.00
2019-05-12T02:21:38.510Z,0.00
2019-05-12T02:24:39.099Z,0.00
2019-05-12T02:27:38.544Z,0.00
2019-05-12T02:30:41.425Z,0.00
2019-05-12T02:33:38.371Z,0.00
2019-05-12T02:36:38.345Z,0.00
2019-05-12T02:39:38.318Z,0.00
2019-05-12T02:42:38.275Z,0.00
2019-05-12T02:45:38.249Z,0.00
2019-05-12T02:48:38.203Z,0.00
2019-05-12T02:51:38.219Z,0.00
2019-05-12T02:54:55.347Z,0.00
2019-05-12T02:57:38.118Z,0.00
2019-05-12T03:00:38.088Z,4.00
2019-05-12T03:03:38.063Z,0.00
2019-05-12T03:06:38.029Z,4.00
2019-05-12T03:09:37.976Z,4.00
2019-05-12T03:12:37.971Z,12.00
2019-05-12T03:15:38.089Z,16.00
2019-05-12T03:18:37.884Z,20.00
2019-05-12T03:21:37.878Z,32.00
2019-05-12T03:24:37.838Z,48.00
2019-05-12T03:27:37.796Z,68.00
2019-05-12T03:30:39.967Z,92.00
2019-05-12T03:33:43.682Z,128.00
2019-05-12T03:36:42.320Z,172.00
2019-05-12T03:39:37.658Z,208.00
2019-05-12T03:42:37.659Z,248.00
2019-05-12T03:45:37.594Z,304.00
2019-05-12T03:48:37.583Z,364.00
2019-05-12T03:51:37.534Z,448.00
2019-05-12T03:54:37.513Z,552.00
2019-05-12T03:57:37.477Z,604.00
2019-05-12T04:00:37.457Z,732.00
2019-05-12T04:03:37.431Z,804.00
2019-05-12T04:06:37.391Z,900.00
2019-05-12T04:09:37.350Z,996.00
2019-05-12T04:12:37.327Z,1112.00
2019-05-12T04:15:37.275Z,1260.00
2019-05-12T04:18:37.264Z,1380.00
2019-05-12T04:21:37.235Z,1640.00
2019-05-12T04:24:37.182Z,1788.00
2019-05-12T04:27:37.165Z,1964.00
2019-05-12T04:30:37.179Z,2192.00
2019-05-12T04:33:37.108Z,2292.00
2019-05-12T04:36:37.052Z,2396.00
2019-05-12T04:39:37.039Z,2616.00
2019-05-12T04:42:36.987Z,2820.00
2019-05-12T04:45:36.979Z,3132.00
2019-05-12T04:48:36.924Z,3192.00
2019-05-12T04:51:36.914Z,3844.00
2019-05-12T04:54:36.866Z,6160.00
2019-05-12T04:57:36.855Z,6288.00
2019-05-12T05:00:36.818Z,3976.00
2019-05-12T05:03:36.798Z,4200.00
2019-05-12T05:06:36.749Z,4308.00
2019-05-12T05:09:36.714Z,4784.00
2019-05-12T05:12:36.668Z,6412.00
2019-05-12T05:15:36.655Z,7004.00
2019-05-12T05:18:36.617Z,6660.00
2019-05-12T05:21:36.591Z,7128.00
2019-05-12T05:24:36.539Z,7484.00
2019-05-12T05:27:36.523Z,7644.00
2019-05-12T05:30:36.476Z,8104.00
2019-05-12T05:33:36.476Z,8492.00
2019-05-12T05:36:36.411Z,8936.00
2019-05-12T05:39:47.901Z,9376.00
2019-05-12T05:42:37.361Z,9876.00
2019-05-12T05:45:36.336Z,11024.00
2019-05-12T05:48:36.302Z,20256.00
2019-05-12T05:51:39.579Z,22464.00
2019-05-12T05:54:40.027Z,22816.00
2019-05-12T05:57:36.204Z,24320.00
2019-05-12T06:00:39.370Z,27200.00
2019-05-12T06:03:36.126Z,27264.00
2019-05-12T06:06:36.104Z,28096.00
2019-05-12T06:09:36.076Z,29760.00
2019-05-12T06:12:40.312Z,31296.00
2019-05-12T06:15:40.709Z,31744.00
2019-05-12T06:18:35.978Z,34624.00
2019-05-12T06:21:38.224Z,36864.00
2019-05-12T06:24:35.916Z,37440.00
2019-05-12T06:27:36.146Z,38528.00
2019-05-12T06:30:44.115Z,39904.00
2019-05-12T06:33:36.793Z,41728.00
2019-05-12T06:36:35.787Z,44288.00
2019-05-12T06:39:35.731Z,46784.00
2019-05-12T06:42:35.711Z,48704.00
2019-05-12T06:45:41.871Z,38144.00
2019-05-12T06:48:36.701Z,34240.00
2019-05-12T06:51:35.601Z,40672.00
2019-05-12T06:54:35.591Z,56128.00
2019-05-12T06:57:40.128Z,53824.00
2019-05-12T07:00:36.504Z,57568.00
2019-05-12T07:03:37.255Z,59872.00
2019-05-12T07:06:35.454Z,37280.00
2019-05-12T07:09:44.283Z,59296.00
2019-05-12T07:12:43.446Z,55488.00
2019-05-12T07:15:40.439Z,43552.00
2019-05-12T07:18:37.047Z,24864.00
2019-05-12T07:21:35.303Z,51552.00
2019-05-12T07:24:35.245Z,59424.00
2019-05-12T07:27:39.334Z,67712.00
2019-05-12T07:30:35.472Z,69120.00
2019-05-12T07:33:41.580Z,67328.00
2019-05-12T07:36:36.126Z,70016.00
2019-05-12T07:39:37.071Z,65856.00
2019-05-12T07:42:39.350Z,71712.00
2019-05-12T07:45:35.042Z,72416.00
2019-05-12T07:48:50.918Z,55616.00
2019-05-12T07:51:38.300Z,72352.00
2019-05-12T07:54:39.452Z,58912.00
2019-05-12T07:57:50.674Z,74400.00
2019-05-12T08:00:35.885Z,18240.00
2019-05-12T08:03:34.842Z,17088.00
2019-05-12T08:06:41.597Z,17472.00
2019-05-12T08:09:36.511Z,12744.00
2019-05-12T08:12:34.760Z,10044.00
2019-05-12T08:15:34.703Z,8232.00
2019-05-12T08:18:36.747Z,14748.00
2019-05-12T08:21:43.842Z,87616.00
2019-05-12T08:24:42.798Z,13404.00
2019-05-12T08:27:39.224Z,9872.00
2019-05-12T08:30:40.353Z,11132.00
2019-05-12T08:33:35.512Z,88544.00
2019-05-12T08:36:34.489Z,92224.00
2019-05-12T08:39:34.452Z,16768.00
2019-05-12T08:42:34.520Z,89376.00
2019-05-12T08:45:37.407Z,93536.00
2019-05-12T08:48:34.381Z,26976.00
2019-05-12T08:51:34.340Z,21024.00
2019-05-12T08:54:34.311Z,17344.00
2019-05-12T08:57:48.850Z,77056.00
2019-05-12T09:00:39.496Z,15056.00
2019-05-12T09:03:35.196Z,20192.00
2019-05-12T09:06:34.394Z,74752.00
2019-05-12T09:09:34.156Z,14024.00
2019-05-12T09:12:34.101Z,30656.00
2019-05-12T09:15:34.759Z,15584.00
2019-05-12T09:18:39.011Z,12948.00
2019-05-12T09:21:37.118Z,96160.00
2019-05-12T09:24:33.973Z,101696.00
2019-05-12T09:27:33.967Z,30464.00
2019-05-12T09:30:33.992Z,15040.00
2019-05-12T09:33:34.769Z,12360.00
2019-05-12T09:36:34.108Z,16544.00
2019-05-12T09:39:42.315Z,98752.00
2019-05-12T09:42:34.793Z,68832.00
2019-05-12T09:45:33.762Z,17440.00
2019-05-12T09:48:33.732Z,14060.00
2019-05-12T09:51:41.781Z,12680.00
2019-05-12T09:54:40.637Z,11780.00
2019-05-12T09:57:40.883Z,13764.00
2019-05-12T10:00:35.779Z,20416.00
2019-05-12T10:03:38.837Z,15724.00
2019-05-12T10:06:34.547Z,95392.00
2019-05-12T10:09:33.643Z,94816.00
2019-05-12T10:12:36.628Z,99552.00
2019-05-12T10:15:34.439Z,26176.00
2019-05-12T10:18:33.730Z,97248.00
2019-05-12T10:21:35.629Z,78496.00
2019-05-12T10:24:41.488Z,15140.00
2019-05-12T10:27:34.662Z,16832.00
2019-05-12T10:30:34.140Z,13320.00
2019-05-12T10:33:33.843Z,102080.00
2019-05-12T10:36:33.739Z,18976.00
2019-05-12T10:39:33.519Z,16384.00
2019-05-12T10:42:33.607Z,13456.00
2019-05-12T10:45:33.129Z,97856.00
2019-05-12T10:48:33.912Z,92224.00
2019-05-12T10:51:34.351Z,90592.00
2019-05-12T10:54:34.205Z,90432.00
2019-05-12T10:57:33.429Z,92192.00
2019-05-12T11:00:33.785Z,93728.00
2019-05-12T11:03:33.767Z,18240.00
2019-05-12T11:06:34.066Z,97824.00
2019-05-12T11:09:34.504Z,25728.00
2019-05-12T11:12:33.318Z,18560.00
2019-05-12T11:15:34.265Z,18688.00
2019-05-12T11:18:34.105Z,12684.00
2019-05-12T11:21:33.659Z,11372.00
2019-05-12T11:24:33.713Z,11616.00
2019-05-12T11:27:34.499Z,27904.00
2019-05-12T11:30:34.666Z,84096.00
2019-05-12T11:33:34.166Z,79520.00
2019-05-12T11:36:34.458Z,21280.00
2019-05-12T11:39:36.679Z,14476.00
2019-05-12T11:42:33.727Z,11852.00
2019-05-12T11:45:33.580Z,12612.00
2019-05-12T11:48:33.887Z,82624.00
2019-05-12T11:51:34.081Z,79680.00
2019-05-12T11:54:33.545Z,74016.00
2019-05-12T11:57:34.089Z,18496.00
2019-05-12T12:00:33.629Z,10112.00
2019-05-12T12:03:33.666Z,21088.00
2019-05-12T12:06:33.132Z,15124.00
2019-05-12T12:09:32.247Z,71392.00
2019-05-12T12:12:34.471Z,66688.00
2019-05-12T12:15:34.221Z,14856.00
2019-05-12T12:18:33.761Z,66048.00
2019-05-12T12:21:34.938Z,11624.00
2019-05-12T12:24:32.115Z,46144.00
2019-05-12T12:27:32.064Z,34752.00
2019-05-12T12:30:33.932Z,36224.00
2019-05-12T12:33:36.713Z,36096.00
2019-05-12T12:36:34.194Z,26880.00
2019-05-12T12:39:31.963Z,10940.00
2019-05-12T12:42:36.908Z,7872.00
2019-05-12T12:45:36.631Z,5732.00
2019-05-12T12:48:33.317Z,4256.00
2019-05-12T12:51:34.130Z,3708.00
2019-05-12T12:54:33.226Z,4212.00
2019-05-12T12:57:33.513Z,4964.00
2019-05-12T13:00:45.442Z,5268.00
2019-05-12T13:03:34.052Z,6028.00
2019-05-12T13:06:31.680Z,7204.00
2019-05-12T13:09:33.460Z,8916.00
2019-05-12T13:12:33.966Z,38592.00
2019-05-12T13:15:33.913Z,37664.00
2019-05-12T13:18:33.934Z,36384.00
2019-05-12T13:21:33.526Z,33152.00
2019-05-12T13:24:33.475Z,30368.00
2019-05-12T13:27:36.143Z,30688.00
2019-05-12T13:30:45.821Z,36512.00
2019-05-12T13:33:33.825Z,24704.00
2019-05-12T13:36:35.394Z,33408.00
2019-05-12T13:39:33.569Z,33280.00
2019-05-12T13:42:35.750Z,32384.00
2019-05-12T13:45:33.624Z,41024.00
2019-05-12T13:48:31.246Z,28992.00
2019-05-12T13:51:33.230Z,36832.00
2019-05-12T13:54:31.154Z,19488.00
2019-05-12T13:57:31.149Z,15904.00
2019-05-12T14:00:33.454Z,12416.00
2019-05-12T14:03:33.471Z,10508.00
2019-05-12T14:06:35.828Z,11016.00
2019-05-12T14:09:34.207Z,12468.00
2019-05-12T14:12:30.982Z,12888.00
2019-05-12T14:15:30.941Z,12924.00
2019-05-12T14:18:33.087Z,12784.00
2019-05-12T14:21:33.064Z,12908.00
2019-05-12T14:24:40.957Z,13020.00
2019-05-12T14:27:33.163Z,13040.00
2019-05-12T14:30:30.802Z,11112.00
2019-05-12T14:33:35.967Z,9604.00
2019-05-12T14:36:32.149Z,17504.00
2019-05-12T14:39:30.683Z,14200.00
2019-05-12T14:42:34.697Z,11576.00
2019-05-12T14:45:33.268Z,11824.00
2019-05-12T14:48:30.606Z,11564.00
2019-05-12T14:51:30.573Z,10028.00
2019-05-12T14:54:30.527Z,9224.00
2019-05-12T14:57:37.260Z,8832.00
2019-05-12T15:02:19.501Z,8100.00
2019-05-12T15:05:16.324Z,7724.00
2019-05-12T15:08:20.299Z,7396.00
2019-05-12T15:11:16.252Z,7104.00
2019-05-12T15:14:15.222Z,6908.00
2019-05-12T15:17:22.363Z,6580.00
2019-05-12T15:20:16.143Z,6220.00
2019-05-12T15:23:15.128Z,6008.00
2019-05-12T15:26:19.685Z,6184.00
2019-05-12T15:29:19.974Z,7304.00
2019-05-12T15:32:16.047Z,17536.00
2019-05-12T15:35:18.316Z,17888.00
2019-05-12T15:38:16.833Z,11040.00
2019-05-12T15:41:16.916Z,10376.00
2019-05-12T15:44:15.904Z,10832.00
2019-05-12T15:47:14.847Z,8548.00
2019-05-12T15:50:15.115Z,7264.00
2019-05-12T15:53:22.284Z,6696.00
2019-05-12T15:56:22.625Z,6876.00
2019-05-12T15:59:17.425Z,7588.00
2019-05-12T16:02:16.969Z,8684.00
2019-05-12T16:05:19.690Z,15872.00
2019-05-12T16:08:15.654Z,9604.00
2019-05-12T16:11:14.598Z,8796.00
2019-05-12T16:14:14.981Z,7628.00
2019-05-12T16:17:18.962Z,7136.00
2019-05-12T16:20:15.553Z,6404.00
2019-05-12T16:23:23.355Z,6424.00
2019-05-12T16:26:15.597Z,5972.00
2019-05-12T16:29:14.424Z,4720.00
2019-05-12T16:32:26.259Z,4432.00
2019-05-12T16:35:20.119Z,3772.00
2019-05-12T16:38:19.785Z,3308.00
2019-05-12T16:41:14.492Z,3204.00
2019-05-12T16:44:21.447Z,3360.00
2019-05-12T16:47:18.717Z,3284.00
2019-05-12T16:50:24.054Z,3208.00
2019-05-12T16:53:21.851Z,4568.00
2019-05-12T16:56:15.117Z,6020.00
2019-05-12T16:59:20.133Z,4364.00
2019-05-12T17:02:15.080Z,4640.00
2019-05-12T17:05:20.253Z,3440.00
2019-05-12T17:08:14.980Z,5044.00
2019-05-12T17:11:27.267Z,3432.00
2019-05-12T17:14:14.907Z,4028.00
2019-05-12T17:17:14.513Z,4868.00
2019-05-12T17:20:14.130Z,4920.00
2019-05-12T17:23:14.053Z,4152.00
2019-05-12T17:26:14.060Z,4456.00
2019-05-12T17:29:13.979Z,4736.00
2019-05-12T17:32:13.720Z,4876.00
2019-05-12T17:35:14.657Z,5040.00
2019-05-12T17:38:19.743Z,4556.00
2019-05-12T17:41:17.859Z,3680.00
2019-05-12T17:44:13.763Z,3592.00
2019-05-12T17:47:21.214Z,3716.00
2019-05-12T17:50:14.557Z,3876.00
2019-05-12T17:53:14.794Z,3232.00
2019-05-12T17:56:13.960Z,2456.00
2019-05-12T17:59:14.988Z,2392.00
2019-05-12T18:02:16.635Z,2308.00
2019-05-12T18:05:15.718Z,2080.00
2019-05-12T18:08:14.437Z,1952.00
2019-05-12T18:11:15.945Z,1700.00
2019-05-12T18:14:14.516Z,1616.00
2019-05-12T18:17:14.143Z,1568.00
2019-05-12T18:20:14.388Z,1848.00
2019-05-12T18:23:13.516Z,2128.00
2019-05-12T18:26:16.121Z,2156.00
2019-05-12T18:29:14.673Z,1688.00
2019-05-12T18:32:13.783Z,1356.00
2019-05-12T18:35:13.794Z,1132.00
2019-05-12T18:38:18.144Z,992.00
2019-05-12T18:41:14.074Z,888.00
2019-05-12T18:44:15.979Z,800.00
2019-05-12T18:47:16.750Z,704.00
2019-05-12T18:50:14.032Z,616.00
2019-05-12T18:53:16.661Z,532.00
2019-05-12T18:56:19.313Z,452.00
2019-05-12T18:59:16.438Z,376.00
2019-05-12T19:02:14.622Z,308.00
2019-05-12T19:05:21.789Z,248.00
2019-05-12T19:08:14.004Z,192.00
2019-05-12T19:11:20.039Z,148.00
2019-05-12T19:14:13.633Z,112.00
2019-05-12T19:17:14.090Z,80.00
2019-05-12T19:20:13.446Z,56.00
2019-05-12T19:23:14.186Z,40.00
2019-05-12T19:26:13.580Z,28.00
2019-05-12T19:29:14.183Z,16.00
2019-05-12T19:32:14.374Z,12.00
2019-05-12T19:35:15.882Z,8.00
2019-05-12T19:38:15.613Z,8.00
2019-05-12T19:41:13.987Z,4.00
2019-05-12T19:44:13.511Z,0.00
2019-05-12T19:47:13.748Z,4.00
2019-05-12T19:50:17.595Z,0.00
2019-05-12T19:53:13.387Z,0.00
2019-05-12T19:56:14.254Z,0.00
2019-05-12T19:59:14.633Z,0.00
2019-05-12T20:02:14.322Z,0.00
2019-05-12T20:05:15.037Z,0.00
2019-05-12T20:08:13.791Z,0.00
2019-05-12T20:11:14.182Z,0.00
2019-05-12T20:14:18.988Z,0.00
2019-05-12T20:17:12.934Z,0.00
2019-05-12T20:20:13.742Z,0.00
2019-05-12T20:23:14.043Z,0.00
2019-05-12T20:26:14.387Z,0.00
2019-05-12T20:29:13.798Z,0.00
2019-05-12T20:32:13.781Z,0.00
2019-05-12T20:35:13.857Z,0.00
2019-05-12T20:38:11.719Z,0.00
2019-05-12T20:41:20.192Z,0.00
2019-05-12T20:44:18.927Z,0.00
2019-05-12T20:47:13.987Z,0.00
2019-05-12T20:50:11.604Z,0.00
2019-05-12T20:53:11.552Z,0.00
2019-05-12T20:56:12.155Z,0.00
2019-05-12T20:59:13.555Z,0.00
2019-05-12T21:02:14.113Z,0.00
2019-05-12T21:05:16.623Z,0.00
2019-05-12T21:08:15.282Z,0.00
2019-05-12T21:11:13.426Z,0.00
2019-05-12T21:14:12.301Z,0.00
2019-05-12T21:17:15.778Z,0.00
2019-05-12T21:20:16.535Z,0.00
2019-05-12T21:23:13.416Z,0.00
2019-05-12T21:26:11.213Z,0.00
2019-05-12T21:29:13.328Z,0.00
2019-05-12T21:32:12.840Z,0.00
2019-05-12T21:35:19.050Z,0.00
2019-05-12T21:38:13.429Z,0.00
2019-05-12T21:41:13.367Z,0.00
2019-05-12T21:44:11.488Z,0.00
2019-05-12T21:47:10.979Z,0.00
2019-05-12T21:50:10.958Z,0.00
2019-05-12T21:53:17.657Z,0.00
2019-05-12T21:56:13.955Z,0.00
2019-05-12T21:59:12.742Z,0.00
2019-05-12T22:02:10.811Z,0.00
2019-05-12T22:05:16.306Z,0.00
2019-05-12T22:08:17.568Z,0.00
2019-05-12T22:11:11.862Z,0.00
2019-05-12T22:14:10.687Z,0.00
2019-05-12T22:17:10.672Z,0.00
2019-05-12T22:20:17.897Z,0.00
2019-05-12T22:23:14.329Z,0.00
2019-05-12T22:26:10.557Z,0.00
2019-05-12T22:29:10.548Z,0.00
2019-05-12T22:32:10.486Z,0.00
2019-05-12T22:35:13.162Z,0.00
2019-05-12T22:38:16.592Z,0.00
2019-05-12T22:41:13.532Z,0.00
2019-05-12T22:44:18.437Z,0.00
2019-05-12T22:47:13.677Z,0.00
2019-05-12T22:50:13.575Z,0.00
2019-05-12T22:53:10.262Z,0.00
2019-05-12T22:56:12.673Z,0.00
2019-05-12T22:59:13.648Z,0.00
2019-05-12T23:02:10.172Z,0.00
2019-05-12T23:05:15.197Z,0.00
2019-05-12T23:08:11.102Z,0.00
2019-05-12T23:11:10.098Z,0.00
2019-05-12T23:14:12.643Z,0.00
2019-05-12T23:17:11.032Z,0.00
2019-05-12T23:20:09.998Z,0.00
2019-05-12T23:23:15.342Z,0.00
2019-05-12T23:26:10.923Z,0.00
2019-05-12T23:29:09.885Z,0.00
2019-05-12T23:32:11.868Z,0.00
2019-05-12T23:35:09.811Z,0.00
2019-05-12T23:38:10.403Z,0.00
2019-05-12T23:41:10.774Z,0.00
2019-05-12T23:44:09.714Z,0.00
2019-05-12T23:47:09.702Z,0.00
2019-05-12T23:50:09.653Z,0.00
2019-05-12T23:53:09.638Z,0.00
2019-05-12T23:56:09.596Z,0.00
2019-05-12T23:59:09.595Z,0.00
